Terminal Aerodrome Forecast
Issued by NWS

Home | Current Version | Previous Version | Text Only | Print | Product List | Glossary On
Versions: 1 2 3 4 5 6 7 8 9 10 11 12 13 14 15 16 17 18 19
000
FTUS46 KLOX 190629 AAA
TAFLGB
TAF AMD
KLGB 190629Z 1906/2006 VRB03KT P6SM SKC
     FM190800 VRB03KT P6SM BKN015
     FM191500 14006KT P6SM VCSH SCT025 OVC040
     FM191800 20008KT P6SM BKN050
     FM192200 26016G24KT P6SM SCT250
     FM200200 29010KT P6SM SKC=

USA.gov is the U.S. government's official web portal to all federal, state and local government web resources and services.